Amman/Queen Alia International

Airport
ICAO code: 
OJAI
Summary
ICAO Region: 
MID
Territory: 
Location: 
Amman/Queen International, Jordan,
Coordinates: 
Aerial View: 
31° 43' 21.363" N, 35° 59' 35.514" E
Metar
Observation
OJAI 291100Z 09010KT 5000 HZ NSC 26/03 Q1022 NOSIG
Station
Queen Alia Airport
Date/Time
2021-11-29 11:00:00
Wind direction
90°
Wind speed
10 kts
Lowest cloud amount
nil significant cloud
Temperature
26°C
Dew point
3°C
Humidity
22%
QNH
1022 hPa
Weather condition
n/a

Description

Principal international airport serving Amman.

Climatology

Dry-summer subtropical ”Mediterranean" climate (Köppen climate classification Csa) - characterized by hot, dry summers and mild winters. During the summer, subtropical high pressure cells dominate, making rainfall unlikely except for the occasional thunderstorm. In the winter, periodic storms bring rain.

Runways

Designator Length Width Surface Rops
08L/26R 3660 61 ASP Yes/Yes
08R/26L 3660 61 CON Yes/Yes
Airport map: 
Aerial View: 

SKYbrary Partners:

Safety knowledge contributed by: